createdAt,value
2018-01-14T00:01:22.382Z,12.23
2018-01-14T00:03:50.608Z,13.20
2018-01-14T00:06:18.093Z,12.15
2018-01-14T00:08:45.587Z,13.05
2018-01-14T00:11:13.051Z,13.32
2018-01-14T00:13:40.515Z,12.30
2018-01-14T00:16:07.987Z,13.48
2018-01-14T00:18:35.463Z,13.40
2018-01-14T00:21:02.920Z,8.90
2018-01-14T00:23:30.387Z,12.88
2018-01-14T00:25:57.859Z,13.20
2018-01-14T00:28:25.314Z,12.18
2018-01-14T00:30:52.786Z,13.77
2018-01-14T00:33:21.028Z,12.37
2018-01-14T00:35:48.499Z,12.88
2018-01-14T00:38:15.963Z,12.40
2018-01-14T00:40:43.446Z,13.20
2018-01-14T00:43:10.983Z,10.07
2018-01-14T00:45:38.442Z,12.93
2018-01-14T00:48:06.694Z,11.85
2018-01-14T00:50:34.164Z,12.57
2018-01-14T00:53:01.718Z,12.93
2018-01-14T00:55:29.174Z,12.23
2018-01-14T00:57:56.655Z,10.15
2018-01-14T01:00:24.878Z,12.85
2018-01-14T01:02:52.359Z,11.88
2018-01-14T01:05:19.815Z,10.77
2018-01-14T01:07:47.304Z,10.40
2018-01-14T01:10:15.551Z,11.18
2018-01-14T01:12:43.007Z,9.63
2018-01-14T01:15:10.466Z,9.50
2018-01-14T01:17:37.986Z,11.70
2018-01-14T01:20:05.455Z,11.05
2018-01-14T01:22:32.926Z,11.75
2018-01-14T01:25:00.437Z,10.32
2018-01-14T01:27:28.668Z,10.98
2018-01-14T01:29:56.130Z,12.00
2018-01-14T01:32:23.603Z,10.05
2018-01-14T01:34:51.080Z,10.65
2018-01-14T01:37:19.314Z,10.60
2018-01-14T01:39:46.782Z,8.85
2018-01-14T01:42:14.242Z,8.95
2018-01-14T01:44:41.699Z,8.88
2018-01-14T01:47:09.163Z,8.70
2018-01-14T01:49:36.613Z,9.65
2018-01-14T01:52:04.078Z,9.73
2018-01-14T01:54:31.535Z,10.55
2018-01-14T01:56:58.994Z,8.82
2018-01-14T01:59:26.549Z,8.45
2018-01-14T02:01:54.015Z,8.93
2018-01-14T02:04:21.474Z,9.35
2018-01-14T02:06:48.942Z,8.30
2018-01-14T02:09:17.164Z,7.95
2018-01-14T02:11:44.639Z,8.65
2018-01-14T02:14:12.107Z,10.48
2018-01-14T02:16:39.571Z,8.55
2018-01-14T02:19:07.179Z,8.60
2018-01-14T02:21:34.603Z,9.27
2018-01-14T02:24:02.070Z,8.70
2018-01-14T02:26:30.306Z,8.45
2018-01-14T02:28:57.766Z,9.40
2018-01-14T02:31:25.239Z,10.25
2018-01-14T02:33:52.706Z,9.35
2018-01-14T02:36:20.162Z,8.95
2018-01-14T02:38:47.632Z,9.60
2018-01-14T02:41:15.126Z,8.75
2018-01-14T02:43:42.590Z,6.95
2018-01-14T02:46:10.052Z,8.55
2018-01-14T02:48:37.519Z,8.77
2018-01-14T02:51:05.024Z,8.75
2018-01-14T02:53:33.291Z,9.00
2018-01-14T02:56:00.762Z,9.77
2018-01-14T02:58:28.991Z,8.80
2018-01-14T03:00:56.458Z,7.90
2018-01-14T03:03:23.927Z,8.30
2018-01-14T03:05:51.390Z,8.45
2018-01-14T03:08:18.846Z,6.15
2018-01-14T03:10:46.311Z,8.43
2018-01-14T03:13:13.775Z,8.05
2018-01-14T03:15:41.235Z,7.93
2018-01-14T03:18:08.702Z,8.00
2018-01-14T03:20:36.164Z,9.23
2018-01-14T03:23:05.191Z,8.48
2018-01-14T03:25:32.653Z,9.00
2018-01-14T03:28:00.122Z,8.88
2018-01-14T03:30:27.582Z,9.02
2018-01-14T03:32:55.050Z,8.57
2018-01-14T03:35:22.522Z,6.25
2018-01-14T03:37:50.114Z,7.80
2018-01-14T03:40:18.339Z,7.78
2018-01-14T03:42:45.823Z,8.43
2018-01-14T03:45:13.279Z,9.32
2018-01-14T03:47:40.747Z,6.80
2018-01-14T03:50:08.214Z,8.05
2018-01-14T03:52:35.667Z,7.82
2018-01-14T03:55:03.127Z,7.95
2018-01-14T03:57:30.594Z,7.72
2018-01-14T03:59:58.814Z,7.72
2018-01-14T04:02:26.310Z,7.18
2018-01-14T04:04:53.780Z,7.20
2018-01-14T04:07:21.259Z,7.30
2018-01-14T04:09:49.484Z,8.02
2018-01-14T04:12:16.959Z,8.23
2018-01-14T04:14:44.424Z,8.85
2018-01-14T04:17:11.931Z,8.63
2018-01-14T04:19:39.381Z,8.18
2018-01-14T04:22:06.848Z,8.40
2018-01-14T04:24:34.310Z,9.70
2018-01-14T04:27:01.770Z,9.57
2018-01-14T04:29:29.235Z,9.13
2018-01-14T04:31:56.726Z,9.10
2018-01-14T04:34:24.199Z,8.00
2018-01-14T04:36:51.650Z,8.38
2018-01-14T04:39:19.111Z,9.80
2018-01-14T04:41:46.594Z,8.80
2018-01-14T04:44:14.059Z,9.45
2018-01-14T04:46:41.582Z,8.05
2018-01-14T04:49:09.042Z,8.95
2018-01-14T04:51:36.504Z,7.60
2018-01-14T04:54:03.962Z,8.90
2018-01-14T04:56:31.426Z,8.20
2018-01-14T04:58:59.664Z,9.05
2018-01-14T05:01:27.138Z,8.73
2018-01-14T05:03:54.602Z,8.32
2018-01-14T05:06:22.064Z,8.15
2018-01-14T05:08:49.543Z,8.07
2018-01-14T05:11:17.786Z,9.00
2018-01-14T05:13:45.294Z,8.80
2018-01-14T05:16:12.751Z,8.68
2018-01-14T05:18:40.980Z,8.85
2018-01-14T05:21:08.434Z,9.10
2018-01-14T05:23:35.899Z,10.38
2018-01-14T05:26:03.359Z,8.50
2018-01-14T05:28:30.828Z,8.25
2018-01-14T05:30:58.281Z,8.93
2018-01-14T05:33:25.747Z,9.75
2018-01-14T05:35:53.199Z,8.75
2018-01-14T05:38:20.674Z,8.77
2018-01-14T05:40:48.897Z,8.15
2018-01-14T05:43:16.371Z,9.63
2018-01-14T05:45:43.830Z,8.73
2018-01-14T05:48:11.419Z,9.32
2018-01-14T05:50:38.883Z,8.65
2018-01-14T05:53:06.344Z,9.45
2018-01-14T05:55:34.583Z,8.55
2018-01-14T05:58:02.049Z,8.98
2018-01-14T06:00:29.514Z,8.93
2018-01-14T06:02:56.978Z,8.65
2018-01-14T06:05:24.431Z,9.45
2018-01-14T06:07:51.914Z,9.50
2018-01-14T06:10:20.156Z,10.23
2018-01-14T06:12:47.627Z,9.45
2018-01-14T06:15:15.109Z,10.20
2018-01-14T06:17:43.331Z,9.40
2018-01-14T06:20:10.804Z,10.40
2018-01-14T06:22:38.262Z,8.68
2018-01-14T06:25:05.727Z,8.80
2018-01-14T06:27:33.231Z,7.62
2018-01-14T06:30:00.703Z,8.15
2018-01-14T06:32:28.181Z,8.35
2018-01-14T06:34:55.659Z,8.43
2018-01-14T06:37:23.115Z,9.32
2018-01-14T06:39:50.696Z,8.57
2018-01-14T06:42:18.156Z,8.13
2018-01-14T06:44:46.387Z,9.15
2018-01-14T06:47:13.857Z,8.43
2018-01-14T06:49:41.333Z,8.95
2018-01-14T06:52:08.865Z,8.48
2018-01-14T06:54:36.331Z,9.60
2018-01-14T06:57:03.796Z,10.45
2018-01-14T06:59:31.268Z,10.95
2018-01-14T07:01:58.729Z,10.25
2018-01-14T07:04:26.197Z,10.77
2018-01-14T07:06:53.663Z,9.23
2018-01-14T07:09:21.903Z,9.48
2018-01-14T07:11:49.375Z,9.48
2018-01-14T07:14:16.847Z,9.15
2018-01-14T07:16:45.084Z,9.60
2018-01-14T07:19:12.547Z,9.70
2018-01-14T07:21:40.022Z,10.85
2018-01-14T07:24:07.494Z,11.90
2018-01-14T07:26:34.959Z,9.85
2018-01-14T07:29:03.227Z,9.93
2018-01-14T07:31:31.459Z,12.70
2018-01-14T07:33:58.933Z,11.40
2018-01-14T07:36:26.403Z,11.93
2018-01-14T07:38:53.879Z,13.85
2018-01-14T07:41:22.114Z,12.90
2018-01-14T07:43:49.610Z,14.40
2018-01-14T07:46:17.070Z,12.90
2018-01-14T07:48:45.304Z,15.57
2018-01-14T07:51:12.771Z,11.27
2018-01-14T07:53:40.242Z,11.18
2018-01-14T07:56:07.710Z,14.10
2018-01-14T07:58:36.086Z,12.75
2018-01-14T08:01:03.562Z,11.30
2018-01-14T08:03:31.804Z,15.25
2018-01-14T08:05:59.279Z,13.23
2018-01-14T08:08:26.746Z,12.55
2018-01-14T08:10:55.010Z,13.35
2018-01-14T08:13:22.462Z,14.20
2018-01-14T08:15:49.935Z,13.00
2018-01-14T08:18:18.171Z,14.75
2018-01-14T08:20:45.642Z,12.55
2018-01-14T08:23:13.101Z,13.18
2018-01-14T08:25:40.575Z,12.55
2018-01-14T08:28:08.039Z,13.38
2018-01-14T08:30:36.280Z,12.75
2018-01-14T08:33:03.749Z,13.55
2018-01-14T08:35:31.222Z,11.77
2018-01-14T08:37:58.683Z,12.30
2018-01-14T08:40:26.154Z,13.50
2018-01-14T08:42:54.391Z,13.95
2018-01-14T08:45:21.883Z,12.98
2018-01-14T08:47:50.118Z,14.85
2018-01-14T08:50:17.591Z,11.50
2018-01-14T08:52:45.059Z,13.05
2018-01-14T08:55:12.519Z,13.00
2018-01-14T08:57:39.998Z,12.30
2018-01-14T09:00:08.231Z,12.50
2018-01-14T09:02:35.714Z,13.88
2018-01-14T09:05:03.192Z,13.15
2018-01-14T09:07:31.427Z,14.35
2018-01-14T09:09:58.911Z,13.20
2018-01-14T09:12:26.407Z,15.40
2018-01-14T09:14:53.886Z,13.45
2018-01-14T09:17:21.427Z,12.95
2018-01-14T09:19:48.976Z,12.63
2018-01-14T09:22:16.436Z,12.52
2018-01-14T09:24:43.943Z,14.45
2018-01-14T09:27:11.400Z,15.32
2018-01-14T09:29:38.887Z,13.10
2018-01-14T09:32:07.136Z,12.88
2018-01-14T09:34:34.619Z,15.02
2018-01-14T09:37:02.860Z,12.30
2018-01-14T09:39:30.366Z,11.43
2018-01-14T09:41:58.667Z,11.15
2018-01-14T09:44:26.151Z,10.45
2018-01-14T09:46:53.631Z,11.38
2018-01-14T09:49:21.871Z,11.20
2018-01-14T09:51:49.335Z,10.00
2018-01-14T09:54:16.796Z,11.68
2018-01-14T09:56:44.281Z,11.88
2018-01-14T09:59:11.752Z,10.27
2018-01-14T10:01:40.027Z,10.70
2018-01-14T10:04:10.038Z,10.38
2018-01-14T10:06:38.284Z,10.85
2018-01-14T10:09:05.755Z,12.13
2018-01-14T10:11:33.219Z,11.05
2018-01-14T10:14:00.691Z,10.60
2018-01-14T10:16:28.927Z,12.20
2018-01-14T10:18:56.391Z,10.05
2018-01-14T10:21:23.863Z,10.80
2018-01-14T10:23:51.333Z,12.90
2018-01-14T10:26:18.790Z,9.40
2018-01-14T10:28:47.023Z,9.68
2018-01-14T10:31:14.491Z,10.73
2018-01-14T10:33:41.948Z,8.68
2018-01-14T10:36:09.424Z,8.02
2018-01-14T10:38:36.891Z,10.43
2018-01-14T10:41:04.368Z,9.68
2018-01-14T10:43:32.591Z,9.65
2018-01-14T10:46:00.063Z,8.63
2018-01-14T10:48:27.534Z,10.02
2018-01-14T10:50:54.990Z,9.27
2018-01-14T10:53:22.446Z,9.80
2018-01-14T10:55:49.922Z,9.52
2018-01-14T10:58:18.158Z,9.60
2018-01-14T11:00:51.312Z,9.30
2018-01-14T11:03:18.775Z,8.85
2018-01-14T11:05:46.259Z,9.65
2018-01-14T11:08:13.719Z,8.27
2018-01-14T11:10:41.212Z,8.52
2018-01-14T11:13:08.684Z,10.10
2018-01-14T11:15:36.911Z,9.07
2018-01-14T11:18:04.386Z,10.30
2018-01-14T11:20:31.851Z,10.30
2018-01-14T11:22:59.315Z,9.57
2018-01-14T11:25:27.570Z,10.55
2018-01-14T11:27:55.037Z,9.60
2018-01-14T11:30:22.514Z,10.80
2018-01-14T11:32:50.754Z,9.73
2018-01-14T11:35:18.216Z,10.32
2018-01-14T11:37:45.686Z,9.40
2018-01-14T11:40:13.208Z,11.00
2018-01-14T11:42:40.671Z,10.35
2018-01-14T11:45:08.204Z,10.30
2018-01-14T11:47:35.735Z,10.65
2018-01-14T11:50:03.967Z,9.02
2018-01-14T11:52:31.454Z,11.23
2018-01-14T11:54:58.915Z,11.40
2018-01-14T11:57:26.387Z,13.05
2018-01-14T11:59:54.611Z,11.95
2018-01-14T12:02:22.090Z,11.70
2018-01-14T12:04:49.555Z,11.07
2018-01-14T12:07:17.048Z,10.77
2018-01-14T12:09:45.271Z,11.35
2018-01-14T12:12:12.752Z,11.45
2018-01-14T12:14:40.206Z,11.10
2018-01-14T12:17:07.688Z,12.15
2018-01-14T12:19:35.919Z,11.00
2018-01-14T12:22:03.407Z,11.68
2018-01-14T12:24:30.875Z,11.20
2018-01-14T12:26:59.107Z,11.88
2018-01-14T12:29:26.575Z,11.60
2018-01-14T12:31:54.048Z,11.10
2018-01-14T12:34:40.213Z,8.88
2018-01-14T12:37:07.683Z,12.05
2018-01-14T12:39:35.154Z,10.90
2018-01-14T12:42:02.628Z,11.15
2018-01-14T12:44:30.096Z,12.10
2018-01-14T12:46:57.562Z,9.45
2018-01-14T12:49:25.803Z,9.93
2018-01-14T12:51:53.260Z,11.20
2018-01-14T12:54:20.736Z,12.68
2018-01-14T12:56:48.207Z,10.73
2018-01-14T12:59:16.439Z,7.72
2018-01-14T13:01:43.954Z,7.53
2018-01-14T13:04:12.185Z,8.40
2018-01-14T13:06:39.635Z,6.95
2018-01-14T13:09:07.107Z,9.05
2018-01-14T13:11:36.066Z,10.23
2018-01-14T13:14:03.577Z,9.95
2018-01-14T13:16:31.803Z,8.88
2018-01-14T13:18:59.306Z,10.48
2018-01-14T13:21:26.824Z,7.90
2018-01-14T13:23:54.286Z,9.98
2018-01-14T13:26:21.797Z,9.70
2018-01-14T13:28:50.029Z,10.90
2018-01-14T13:31:17.503Z,10.55
2018-01-14T13:33:44.966Z,7.03
2018-01-14T13:36:12.442Z,11.65
2018-01-14T13:38:40.678Z,10.90
2018-01-14T13:41:08.196Z,11.43
2018-01-14T13:43:35.659Z,11.45
2018-01-14T13:46:03.146Z,10.30
2018-01-14T13:48:30.608Z,9.45
2018-01-14T13:50:58.088Z,12.18
2018-01-14T13:53:25.590Z,11.30
2018-01-14T13:55:53.120Z,9.55
2018-01-14T13:58:21.350Z,10.48
2018-01-14T14:00:48.816Z,9.75
2018-01-14T14:03:16.278Z,10.65
2018-01-14T14:05:43.758Z,10.10
2018-01-14T14:08:11.255Z,9.85
2018-01-14T14:10:38.718Z,9.32
2018-01-14T14:13:06.186Z,7.93
2018-01-14T14:15:33.648Z,9.20
2018-01-14T14:18:01.106Z,7.70
2018-01-14T14:20:28.614Z,9.68
2018-01-14T14:22:56.847Z,9.00
2018-01-14T14:25:24.323Z,9.20
2018-01-14T14:27:51.832Z,10.05
2018-01-14T14:30:19.333Z,9.48
2018-01-14T14:32:46.778Z,9.57
2018-01-14T14:35:14.242Z,9.32
2018-01-14T14:37:41.733Z,10.00
2018-01-14T14:40:09.271Z,8.90
2018-01-14T14:42:36.731Z,10.48
2018-01-14T14:45:04.200Z,9.90
2018-01-14T14:47:32.427Z,9.35
2018-01-14T14:49:59.903Z,10.07
2018-01-14T14:52:27.396Z,9.93
2018-01-14T14:54:54.937Z,6.72
2018-01-14T14:57:22.398Z,10.93
2018-01-14T14:59:49.864Z,10.00
2018-01-14T15:02:17.338Z,11.18
2018-01-14T15:04:45.566Z,11.23
2018-01-14T15:07:13.064Z,10.75
2018-01-14T15:09:41.301Z,11.38
2018-01-14T15:12:08.760Z,10.40
2018-01-14T15:14:36.260Z,9.13
2018-01-14T15:17:04.487Z,9.40
2018-01-14T15:19:31.950Z,9.65
2018-01-14T15:21:59.419Z,9.07
2018-01-14T15:24:26.882Z,10.90
2018-01-14T15:26:54.412Z,8.80
2018-01-14T15:29:21.871Z,10.30
2018-01-14T15:31:49.374Z,10.63
2018-01-14T15:34:16.869Z,10.40
2018-01-14T15:36:44.333Z,11.18
2018-01-14T15:39:11.802Z,9.25
2018-01-14T15:41:39.278Z,10.55
2018-01-14T15:44:06.747Z,9.70
2018-01-14T15:46:34.220Z,11.90
2018-01-14T15:49:02.505Z,10.70
2018-01-14T15:51:30.733Z,10.18
2018-01-14T15:53:58.235Z,11.50
2018-01-14T15:56:26.462Z,11.75
2018-01-14T15:58:53.918Z,11.07
2018-01-14T16:01:21.426Z,11.38
2018-01-14T16:03:48.872Z,10.40
2018-01-14T16:06:16.341Z,11.10
2018-01-14T16:08:44.610Z,11.40
2018-01-14T16:11:12.075Z,11.70
2018-01-14T16:13:40.357Z,10.60
2018-01-14T16:16:08.634Z,10.63
2018-01-14T16:18:36.863Z,13.10
2018-01-14T16:21:04.344Z,12.00
2018-01-14T16:23:31.799Z,11.48
2018-01-14T16:25:59.272Z,12.52
2018-01-14T16:28:27.499Z,13.50
2018-01-14T16:30:55.010Z,13.07
2018-01-14T16:33:23.226Z,12.68
2018-01-14T16:35:50.794Z,11.38
2018-01-14T16:38:18.231Z,14.25
2018-01-14T16:40:45.698Z,12.13
2018-01-14T16:43:13.182Z,12.68
2018-01-14T16:45:40.967Z,10.77
2018-01-14T16:48:08.423Z,12.75
2018-01-14T16:50:35.933Z,12.75
2018-01-14T16:53:03.403Z,13.48
2018-01-14T16:55:30.907Z,11.65
2018-01-14T16:57:59.171Z,10.75
2018-01-14T17:00:26.635Z,9.43
2018-01-14T17:02:54.899Z,7.57
2018-01-14T17:05:22.371Z,12.50
2018-01-14T17:07:50.925Z,14.23
2018-01-14T17:10:18.393Z,12.63
2018-01-14T17:12:45.873Z,11.82
2018-01-14T17:15:14.186Z,12.20
2018-01-14T17:17:42.801Z,12.23
2018-01-14T17:20:10.258Z,11.30
2018-01-14T17:22:38.124Z,11.75
2018-01-14T17:25:05.592Z,9.20
2018-01-14T17:27:34.618Z,11.82
2018-01-14T17:30:02.839Z,11.02
2018-01-14T17:32:30.317Z,12.57
2018-01-14T17:34:58.176Z,12.50
2018-01-14T17:37:25.687Z,12.13
2018-01-14T17:39:54.321Z,11.68
2018-01-14T17:42:22.087Z,11.85
2018-01-14T17:44:49.556Z,11.55
2018-01-14T17:47:17.034Z,13.50
2018-01-14T17:49:45.320Z,12.93
2018-01-14T17:52:13.588Z,11.85
2018-01-14T17:54:41.044Z,12.52
2018-01-14T17:57:09.279Z,10.38
2018-01-14T17:59:37.058Z,11.90
2018-01-14T18:02:04.824Z,12.77
2018-01-14T18:04:32.588Z,13.18
2018-01-14T18:07:00.048Z,13.30
2018-01-14T18:09:27.528Z,13.62
2018-01-14T18:11:55.372Z,12.98
2018-01-14T18:14:22.889Z,13.18
2018-01-14T18:16:59.279Z,12.35
2018-01-14T18:19:27.167Z,12.52
2018-01-14T18:21:54.743Z,13.35
2018-01-14T18:24:22.199Z,13.57
2018-01-14T18:26:49.676Z,12.30
2018-01-14T18:29:17.147Z,13.45
2018-01-14T18:31:45.422Z,13.10
2018-01-14T18:34:13.652Z,13.40
2018-01-14T18:36:41.524Z,13.13
2018-01-14T18:39:09.289Z,13.80
2018-01-14T18:41:36.808Z,13.70
2018-01-14T18:44:04.614Z,12.75
2018-01-14T18:46:32.077Z,13.40
2018-01-14T18:48:59.576Z,13.65
2018-01-14T18:51:27.885Z,13.38
2018-01-14T18:53:55.429Z,14.43
2018-01-14T18:56:22.899Z,14.13
2018-01-14T18:58:50.358Z,13.57
2018-01-14T19:01:17.894Z,13.05
2018-01-14T19:03:46.159Z,13.50
2018-01-14T19:06:14.434Z,13.60
2018-01-14T19:08:41.941Z,14.70
2018-01-14T19:11:09.395Z,14.52
2018-01-14T19:13:36.866Z,14.50
2018-01-14T19:16:04.334Z,14.50
2018-01-14T19:18:31.854Z,15.98
2018-01-14T19:20:59.302Z,14.27
2018-01-14T19:23:26.789Z,15.65
2018-01-14T19:25:54.247Z,14.75
2018-01-14T19:28:21.779Z,14.98
2018-01-14T19:30:49.994Z,14.63
2018-01-14T19:33:17.466Z,14.90
2018-01-14T19:35:44.979Z,15.25
2018-01-14T19:38:13.264Z,14.50
2018-01-14T19:40:40.773Z,14.85
2018-01-14T19:43:08.330Z,14.82
2018-01-14T19:45:35.838Z,14.05
2018-01-14T19:48:03.344Z,14.85
2018-01-14T19:50:30.849Z,16.17
2018-01-14T19:52:59.077Z,14.85
2018-01-14T19:55:26.602Z,16.30
2018-01-14T19:57:54.117Z,15.00
2018-01-14T20:00:21.625Z,15.00
2018-01-14T20:02:49.129Z,14.73
2018-01-14T20:05:17.404Z,15.45
2018-01-14T20:07:44.916Z,15.70
2018-01-14T20:10:12.430Z,14.80
2018-01-14T20:12:39.950Z,16.55
2018-01-14T20:15:07.449Z,15.60
2018-01-14T20:17:34.971Z,14.13
2018-01-14T20:20:02.540Z,15.65
2018-01-14T20:22:30.010Z,14.55
2018-01-14T20:24:57.466Z,15.35
2018-01-14T20:27:24.991Z,15.70
2018-01-14T20:29:52.481Z,16.23
2018-01-14T20:32:19.997Z,15.30
2018-01-14T20:34:47.509Z,14.82
2018-01-14T20:37:15.016Z,17.17
2018-01-14T20:39:42.513Z,18.10
2018-01-14T20:42:10.017Z,17.80
2018-01-14T20:44:44.074Z,16.05
2018-01-14T20:47:11.602Z,16.25
2018-01-14T20:49:39.836Z,15.77
2018-01-14T20:52:07.346Z,16.83
2018-01-14T20:54:34.858Z,15.05
2018-01-14T20:57:02.378Z,15.20
2018-01-14T20:59:29.843Z,15.85
2018-01-14T21:01:57.397Z,15.13
2018-01-14T21:04:27.773Z,15.98
2018-01-14T21:06:55.280Z,15.55
2018-01-14T21:09:22.789Z,14.90
2018-01-14T21:11:50.558Z,15.60
2018-01-14T21:14:18.062Z,16.20
2018-01-14T21:16:45.562Z,16.12
2018-01-14T21:19:13.079Z,17.77
2018-01-14T21:21:40.590Z,17.33
2018-01-14T21:24:08.134Z,16.42
2018-01-14T21:26:35.638Z,14.70
2018-01-14T21:29:03.903Z,15.10
2018-01-14T21:31:33.485Z,16.90
2018-01-14T21:34:01.006Z,15.88
2018-01-14T21:36:28.515Z,14.73
2018-01-14T21:38:56.122Z,14.05
2018-01-14T21:41:23.576Z,13.77
2018-01-14T21:43:51.123Z,14.30
2018-01-14T21:46:19.389Z,14.50
2018-01-14T21:48:47.660Z,14.45
2018-01-14T21:51:15.225Z,15.20
2018-01-14T21:53:42.769Z,15.02
2018-01-14T21:56:10.281Z,15.88
2018-01-14T21:58:37.802Z,15.90
2018-01-14T22:01:06.077Z,16.27
2018-01-14T22:03:34.362Z,16.52
2018-01-14T22:06:02.633Z,16.48
2018-01-14T22:08:30.919Z,16.10
2018-01-14T22:10:59.194Z,15.98
2018-01-14T22:13:27.464Z,16.45
2018-01-14T22:15:55.699Z,16.45
2018-01-14T22:18:23.211Z,17.42
2018-01-14T22:20:51.486Z,16.87
2018-01-14T22:23:19.786Z,16.65
2018-01-14T22:25:47.319Z,16.08
2018-01-14T22:28:15.546Z,17.23
2018-01-14T22:30:43.396Z,14.93
2018-01-14T22:33:10.949Z,16.80
2018-01-14T22:35:38.485Z,16.25
2018-01-14T22:38:06.850Z,15.60
2018-01-14T22:40:35.112Z,17.17
2018-01-14T22:43:02.605Z,15.82
2018-01-14T22:45:30.517Z,16.33
2018-01-14T22:47:58.535Z,16.80
2018-01-14T22:53:20.382Z,17.58
2018-01-14T22:55:48.654Z,18.33
2018-01-14T22:58:16.115Z,17.12
2018-01-14T23:00:44.355Z,16.52
2018-01-14T23:03:12.139Z,18.62
2018-01-14T23:05:39.614Z,16.80
2018-01-14T23:08:07.076Z,18.45
2018-01-14T23:10:36.994Z,17.60
2018-01-14T23:13:05.514Z,17.95
2018-01-14T23:15:32.982Z,18.50
2018-01-14T23:18:00.457Z,18.15
2018-01-14T23:20:27.935Z,17.73
2018-01-14T23:22:55.744Z,19.58
2018-01-14T23:25:24.128Z,16.75
2018-01-14T23:27:51.596Z,16.67
2018-01-14T23:30:19.066Z,19.98
2018-01-14T23:32:46.535Z,19.58
2018-01-14T23:35:14.006Z,21.58
2018-01-14T23:37:41.503Z,20.67
2018-01-14T23:40:09.015Z,18.52
2018-01-14T23:42:36.559Z,17.92
2018-01-14T23:45:04.052Z,19.23
2018-01-14T23:47:32.283Z,16.65
2018-01-14T23:49:59.759Z,14.98
2018-01-14T23:52:27.451Z,15.00
2018-01-14T23:54:55.695Z,15.35
2018-01-14T23:57:23.159Z,15.93
2018-01-14T23:59:51.084Z,15.93
